sensor_id;sensor_type;location;lat;lon;timestamp;pressure;altitude;pressure_sealevel;temperature;humidity
73501;BME280;61721;42.206;25.320;2024-01-27T00:01:05;100041.56;;;2.80;58.88
73501;BME280;61721;42.206;25.320;2024-01-27T00:03:33;100047.75;;;2.54;59.59
73501;BME280;61721;42.206;25.320;2024-01-27T00:06:00;100042.84;;;2.68;59.32
73501;BME280;61721;42.206;25.320;2024-01-27T00:08:34;100040.88;;;2.78;58.84
73501;BME280;61721;42.206;25.320;2024-01-27T00:11:03;100046.19;;;2.70;59.11
73501;BME280;61721;42.206;25.320;2024-01-27T00:13:31;100037.13;;;2.71;59.67
73501;BME280;61721;42.206;25.320;2024-01-27T00:15:59;100045.63;;;2.84;59.22
73501;BME280;61721;42.206;25.320;2024-01-27T00:18:27;100057.88;;;3.38;58.11
73501;BME280;61721;42.206;25.320;2024-01-27T00:20:54;100056.47;;;3.60;57.44
73501;BME280;61721;42.206;25.320;2024-01-27T00:23:22;100061.19;;;3.66;57.05
73501;BME280;61721;42.206;25.320;2024-01-27T00:25:49;100047.03;;;3.22;58.17
73501;BME280;61721;42.206;25.320;2024-01-27T00:28:16;100054.75;;;3.51;58.03
73501;BME280;61721;42.206;25.320;2024-01-27T00:30:45;100048.16;;;2.85;59.12
73501;BME280;61721;42.206;25.320;2024-01-27T00:33:13;100055.72;;;2.64;59.77
73501;BME280;61721;42.206;25.320;2024-01-27T00:35:40;100051.56;;;2.70;59.63
73501;BME280;61721;42.206;25.320;2024-01-27T00:38:07;100059.25;;;2.65;59.74
73501;BME280;61721;42.206;25.320;2024-01-27T00:40:35;100053.66;;;2.58;59.79
73501;BME280;61721;42.206;25.320;2024-01-27T00:43:03;100052.06;;;2.47;60.10
73501;BME280;61721;42.206;25.320;2024-01-27T00:45:31;100043.47;;;2.26;60.61
73501;BME280;61721;42.206;25.320;2024-01-27T00:48:00;100039.41;;;2.40;60.44
73501;BME280;61721;42.206;25.320;2024-01-27T00:50:27;100054.19;;;2.61;59.86
73501;BME280;61721;42.206;25.320;2024-01-27T00:52:54;100044.09;;;2.20;60.98
73501;BME280;61721;42.206;25.320;2024-01-27T00:55:22;100051.50;;;2.44;60.84
73501;BME280;61721;42.206;25.320;2024-01-27T00:57:49;100030.97;;;2.17;61.29
73501;BME280;61721;42.206;25.320;2024-01-27T01:00:17;100033.28;;;2.30;61.09
73501;BME280;61721;42.206;25.320;2024-01-27T01:02:44;100038.72;;;2.38;60.90
73501;BME280;61721;42.206;25.320;2024-01-27T01:05:13;100027.75;;;2.13;61.09
73501;BME280;61721;42.206;25.320;2024-01-27T01:07:41;100023.22;;;2.14;61.21
73501;BME280;61721;42.206;25.320;2024-01-27T01:10:08;100017.84;;;2.14;61.13
73501;BME280;61721;42.206;25.320;2024-01-27T01:12:36;100026.59;;;2.16;60.87
73501;BME280;61721;42.206;25.320;2024-01-27T01:15:04;100025.75;;;2.33;60.35
73501;BME280;61721;42.206;25.320;2024-01-27T01:17:32;100022.06;;;2.34;60.42
73501;BME280;61721;42.206;25.320;2024-01-27T01:19:59;100019.53;;;2.15;60.71
73501;BME280;61721;42.206;25.320;2024-01-27T01:22:28;100008.94;;;2.31;60.52
73501;BME280;61721;42.206;25.320;2024-01-27T01:24:55;100006.56;;;2.46;59.96
73501;BME280;61721;42.206;25.320;2024-01-27T01:27:24;100009.56;;;2.25;60.21
73501;BME280;61721;42.206;25.320;2024-01-27T01:29:51;99997.72;;;2.10;60.43
73501;BME280;61721;42.206;25.320;2024-01-27T01:32:19;99991.09;;;2.40;59.82
73501;BME280;61721;42.206;25.320;2024-01-27T01:34:46;99996.84;;;2.27;60.50
73501;BME280;61721;42.206;25.320;2024-01-27T01:37:13;99980.84;;;2.43;59.93
73501;BME280;61721;42.206;25.320;2024-01-27T01:39:42;99978.75;;;1.94;61.01
73501;BME280;61721;42.206;25.320;2024-01-27T01:42:09;99984.81;;;1.96;61.17
73501;BME280;61721;42.206;25.320;2024-01-27T01:44:37;99989.59;;;2.02;60.82
73501;BME280;61721;42.206;25.320;2024-01-27T01:47:04;99988.22;;;1.53;61.73
73501;BME280;61721;42.206;25.320;2024-01-27T01:49:32;99983.03;;;1.86;61.29
73501;BME280;61721;42.206;25.320;2024-01-27T01:52:01;99994.31;;;2.26;60.36
73501;BME280;61721;42.206;25.320;2024-01-27T01:54:28;99993.41;;;2.60;59.62
73501;BME280;61721;42.206;25.320;2024-01-27T01:56:59;99987.72;;;2.64;59.43
73501;BME280;61721;42.206;25.320;2024-01-27T01:59:26;99987.50;;;2.83;59.05
73501;BME280;61721;42.206;25.320;2024-01-27T02:01:53;99986.41;;;2.93;58.80
73501;BME280;61721;42.206;25.320;2024-01-27T02:04:21;99986.31;;;3.11;58.37
73501;BME280;61721;42.206;25.320;2024-01-27T02:06:48;99976.22;;;3.05;58.03
73501;BME280;61721;42.206;25.320;2024-01-27T02:09:15;99975.44;;;3.21;58.35
73501;BME280;61721;42.206;25.320;2024-01-27T02:11:43;99971.81;;;2.96;57.83
73501;BME280;61721;42.206;25.320;2024-01-27T02:14:12;99960.41;;;2.24;60.34
73501;BME280;61721;42.206;25.320;2024-01-27T02:16:39;99959.34;;;2.87;59.32
73501;BME280;61721;42.206;25.320;2024-01-27T02:19:07;99971.63;;;3.31;57.08
73501;BME280;61721;42.206;25.320;2024-01-27T02:21:34;99961.00;;;3.22;58.03
73501;BME280;61721;42.206;25.320;2024-01-27T02:24:01;99951.75;;;3.16;57.71
73501;BME280;61721;42.206;25.320;2024-01-27T02:26:30;99946.03;;;3.19;57.42
73501;BME280;61721;42.206;25.320;2024-01-27T02:28:58;99953.50;;;2.66;58.87
73501;BME280;61721;42.206;25.320;2024-01-27T02:31:25;99957.19;;;2.65;58.95
73501;BME280;61721;42.206;25.320;2024-01-27T02:33:53;99953.50;;;2.40;60.07
73501;BME280;61721;42.206;25.320;2024-01-27T02:36:20;99965.38;;;2.37;60.06
73501;BME280;61721;42.206;25.320;2024-01-27T02:38:47;99973.16;;;1.87;61.97
73501;BME280;61721;42.206;25.320;2024-01-27T02:41:15;99983.91;;;1.87;62.58
73501;BME280;61721;42.206;25.320;2024-01-27T02:43:44;99984.25;;;1.74;63.23
73501;BME280;61721;42.206;25.320;2024-01-27T02:46:12;99978.91;;;2.10;63.04
73501;BME280;61721;42.206;25.320;2024-01-27T02:48:41;99995.16;;;2.26;62.05
73501;BME280;61721;42.206;25.320;2024-01-27T02:51:08;99997.53;;;2.29;62.39
73501;BME280;61721;42.206;25.320;2024-01-27T02:53:36;99982.97;;;2.83;60.46
73501;BME280;61721;42.206;25.320;2024-01-27T02:56:06;99979.06;;;3.04;59.80
73501;BME280;61721;42.206;25.320;2024-01-27T02:58:34;99976.94;;;3.15;58.91
73501;BME280;61721;42.206;25.320;2024-01-27T03:01:03;99979.13;;;2.60;60.43
73501;BME280;61721;42.206;25.320;2024-01-27T03:03:30;99968.97;;;2.97;59.57
73501;BME280;61721;42.206;25.320;2024-01-27T03:05:58;99975.13;;;2.90;59.46
73501;BME280;61721;42.206;25.320;2024-01-27T03:08:26;99974.69;;;2.69;59.61
73501;BME280;61721;42.206;25.320;2024-01-27T03:10:53;99968.97;;;2.72;60.04
73501;BME280;61721;42.206;25.320;2024-01-27T03:13:20;99965.75;;;2.94;59.53
73501;BME280;61721;42.206;25.320;2024-01-27T03:15:48;99955.69;;;2.70;60.36
73501;BME280;61721;42.206;25.320;2024-01-27T03:18:17;99950.63;;;2.93;59.90
73501;BME280;61721;42.206;25.320;2024-01-27T03:20:44;99942.06;;;3.40;58.57
73501;BME280;61721;42.206;25.320;2024-01-27T03:23:12;99928.94;;;3.28;58.47
73501;BME280;61721;42.206;25.320;2024-01-27T03:25:39;99931.03;;;3.59;57.92
73501;BME280;61721;42.206;25.320;2024-01-27T03:28:06;99938.09;;;3.60;57.79
73501;BME280;61721;42.206;25.320;2024-01-27T03:30:34;99936.00;;;3.38;57.82
73501;BME280;61721;42.206;25.320;2024-01-27T03:33:02;99947.66;;;3.04;59.59
73501;BME280;61721;42.206;25.320;2024-01-27T03:35:30;99929.97;;;3.35;58.87
73501;BME280;61721;42.206;25.320;2024-01-27T03:37:58;99922.97;;;3.09;59.46
73501;BME280;61721;42.206;25.320;2024-01-27T03:40:26;99916.13;;;3.14;59.56
73501;BME280;61721;42.206;25.320;2024-01-27T03:42:53;99911.47;;;3.32;59.79
73501;BME280;61721;42.206;25.320;2024-01-27T03:45:20;99900.44;;;3.60;58.49
73501;BME280;61721;42.206;25.320;2024-01-27T03:47:48;99907.81;;;3.58;58.13
73501;BME280;61721;42.206;25.320;2024-01-27T03:50:15;99911.94;;;3.20;58.77
73501;BME280;61721;42.206;25.320;2024-01-27T03:52:44;99921.00;;;3.27;58.91
73501;BME280;61721;42.206;25.320;2024-01-27T03:55:11;99921.53;;;3.30;58.49
73501;BME280;61721;42.206;25.320;2024-01-27T03:57:39;99928.94;;;3.28;58.28
73501;BME280;61721;42.206;25.320;2024-01-27T04:00:07;99932.88;;;3.08;59.09
73501;BME280;61721;42.206;25.320;2024-01-27T04:02:37;99939.31;;;3.15;59.29
73501;BME280;61721;42.206;25.320;2024-01-27T04:05:05;99927.13;;;2.95;59.67
73501;BME280;61721;42.206;25.320;2024-01-27T04:07:33;99912.66;;;2.62;60.82
73501;BME280;61721;42.206;25.320;2024-01-27T04:10:03;99926.09;;;2.88;60.61
73501;BME280;61721;42.206;25.320;2024-01-27T04:12:31;99923.69;;;2.77;60.99
73501;BME280;61721;42.206;25.320;2024-01-27T04:14:58;99920.91;;;2.94;60.51
73501;BME280;61721;42.206;25.320;2024-01-27T04:17:25;99913.31;;;2.90;60.62
73501;BME280;61721;42.206;25.320;2024-01-27T04:19:53;99914.78;;;2.76;61.37
73501;BME280;61721;42.206;25.320;2024-01-27T04:22:20;99899.72;;;2.91;60.55
73501;BME280;61721;42.206;25.320;2024-01-27T04:24:47;99913.91;;;2.68;61.10
73501;BME280;61721;42.206;25.320;2024-01-27T04:27:16;99925.91;;;3.23;60.11
73501;BME280;61721;42.206;25.320;2024-01-27T04:29:43;99908.47;;;3.35;59.20
73501;BME280;61721;42.206;25.320;2024-01-27T04:32:11;99900.91;;;3.47;58.74
73501;BME280;61721;42.206;25.320;2024-01-27T04:34:39;99897.50;;;3.29;59.51
73501;BME280;61721;42.206;25.320;2024-01-27T04:37:06;99899.09;;;2.97;59.87
73501;BME280;61721;42.206;25.320;2024-01-27T04:39:34;99904.03;;;2.50;61.31
73501;BME280;61721;42.206;25.320;2024-01-27T04:42:01;99892.28;;;2.00;63.39
73501;BME280;61721;42.206;25.320;2024-01-27T04:44:30;99882.16;;;1.94;63.35
73501;BME280;61721;42.206;25.320;2024-01-27T04:46:57;99886.84;;;2.35;63.31
73501;BME280;61721;42.206;25.320;2024-01-27T04:49:25;99882.84;;;2.39;62.62
73501;BME280;61721;42.206;25.320;2024-01-27T04:51:53;99897.13;;;2.22;62.60
73501;BME280;61721;42.206;25.320;2024-01-27T04:54:20;99889.47;;;2.27;62.84
73501;BME280;61721;42.206;25.320;2024-01-27T04:56:48;99893.16;;;2.26;62.60
73501;BME280;61721;42.206;25.320;2024-01-27T04:59:15;99898.47;;;2.18;62.76
73501;BME280;61721;42.206;25.320;2024-01-27T05:01:45;99895.78;;;2.18;62.48
73501;BME280;61721;42.206;25.320;2024-01-27T05:04:13;99887.97;;;2.07;63.14
73501;BME280;61721;42.206;25.320;2024-01-27T05:06:43;99880.47;;;2.10;62.52
73501;BME280;61721;42.206;25.320;2024-01-27T05:09:13;99885.16;;;2.34;62.65
73501;BME280;61721;42.206;25.320;2024-01-27T05:11:42;99869.34;;;2.57;61.94
73501;BME280;61721;42.206;25.320;2024-01-27T05:14:11;99873.56;;;2.59;62.06
73501;BME280;61721;42.206;25.320;2024-01-27T05:16:39;99873.34;;;2.53;61.71
73501;BME280;61721;42.206;25.320;2024-01-27T05:19:08;99874.69;;;2.49;61.89
73501;BME280;61721;42.206;25.320;2024-01-27T05:21:35;99878.72;;;2.87;61.32
73501;BME280;61721;42.206;25.320;2024-01-27T05:24:03;99872.91;;;2.66;62.20
73501;BME280;61721;42.206;25.320;2024-01-27T05:26:30;99879.03;;;2.84;61.91
73501;BME280;61721;42.206;25.320;2024-01-27T05:28:59;99890.84;;;2.57;62.85
73501;BME280;61721;42.206;25.320;2024-01-27T05:31:27;99889.31;;;2.54;62.96
73501;BME280;61721;42.206;25.320;2024-01-27T05:33:54;99881.50;;;2.43;63.05
73501;BME280;61721;42.206;25.320;2024-01-27T05:36:25;99882.50;;;2.42;63.45
73501;BME280;61721;42.206;25.320;2024-01-27T05:38:53;99882.09;;;2.29;63.24
73501;BME280;61721;42.206;25.320;2024-01-27T05:41:20;99882.47;;;2.34;63.02
73501;BME280;61721;42.206;25.320;2024-01-27T05:43:52;99875.41;;;2.33;63.17
73501;BME280;61721;42.206;25.320;2024-01-27T05:46:20;99867.50;;;2.32;63.13
73501;BME280;61721;42.206;25.320;2024-01-27T05:48:48;99872.59;;;2.69;62.09
73501;BME280;61721;42.206;25.320;2024-01-27T05:51:17;99883.44;;;2.93;61.32
73501;BME280;61721;42.206;25.320;2024-01-27T05:53:46;99901.59;;;2.99;61.20
73501;BME280;61721;42.206;25.320;2024-01-27T05:56:14;99894.13;;;3.27;60.21
73501;BME280;61721;42.206;25.320;2024-01-27T05:58:41;99897.84;;;2.84;61.19
73501;BME280;61721;42.206;25.320;2024-01-27T06:01:09;99903.88;;;2.78;62.01
73501;BME280;61721;42.206;25.320;2024-01-27T06:03:36;99899.78;;;2.66;62.33
73501;BME280;61721;42.206;25.320;2024-01-27T06:06:04;99906.00;;;2.66;62.74
73501;BME280;61721;42.206;25.320;2024-01-27T06:08:32;99901.97;;;2.70;62.91
73501;BME280;61721;42.206;25.320;2024-01-27T06:11:01;99911.00;;;2.95;62.42
73501;BME280;61721;42.206;25.320;2024-01-27T06:13:28;99912.94;;;3.19;61.71
73501;BME280;61721;42.206;25.320;2024-01-27T06:15:57;99904.22;;;2.83;62.70
73501;BME280;61721;42.206;25.320;2024-01-27T06:18:25;99903.22;;;2.84;63.18
73501;BME280;61721;42.206;25.320;2024-01-27T06:20:52;99899.53;;;2.85;63.27
73501;BME280;61721;42.206;25.320;2024-01-27T06:23:22;99904.25;;;2.91;63.64
73501;BME280;61721;42.206;25.320;2024-01-27T06:25:49;99906.50;;;3.04;63.68
73501;BME280;61721;42.206;25.320;2024-01-27T06:28:18;99907.69;;;3.09;62.93
73501;BME280;61721;42.206;25.320;2024-01-27T06:30:46;99899.16;;;3.14;62.78
73501;BME280;61721;42.206;25.320;2024-01-27T06:33:13;99909.75;;;3.23;62.58
73501;BME280;61721;42.206;25.320;2024-01-27T06:35:41;99897.44;;;3.63;61.03
73501;BME280;61721;42.206;25.320;2024-01-27T06:38:08;99902.81;;;3.71;60.50
73501;BME280;61721;42.206;25.320;2024-01-27T06:40:35;99900.41;;;3.44;60.88
73501;BME280;61721;42.206;25.320;2024-01-27T06:43:03;99889.38;;;4.12;59.77
73501;BME280;61721;42.206;25.320;2024-01-27T06:45:32;99891.22;;;3.87;59.68
73501;BME280;61721;42.206;25.320;2024-01-27T06:47:59;99888.69;;;4.18;58.90
73501;BME280;61721;42.206;25.320;2024-01-27T06:50:27;99888.31;;;4.37;58.81
73501;BME280;61721;42.206;25.320;2024-01-27T06:52:54;99886.34;;;4.23;59.01
73501;BME280;61721;42.206;25.320;2024-01-27T06:55:21;99886.31;;;4.39;58.81
73501;BME280;61721;42.206;25.320;2024-01-27T06:57:48;99889.63;;;4.57;58.08
73501;BME280;61721;42.206;25.320;2024-01-27T07:00:17;99881.88;;;4.62;58.33
73501;BME280;61721;42.206;25.320;2024-01-27T07:02:45;99880.53;;;4.58;58.27
73501;BME280;61721;42.206;25.320;2024-01-27T07:05:13;99887.78;;;4.58;58.02
73501;BME280;61721;42.206;25.320;2024-01-27T07:07:40;99885.41;;;4.71;57.93
73501;BME280;61721;42.206;25.320;2024-01-27T07:10:09;99889.19;;;3.97;60.12
73501;BME280;61721;42.206;25.320;2024-01-27T07:12:36;99897.44;;;3.79;61.07
73501;BME280;61721;42.206;25.320;2024-01-27T07:15:04;99898.81;;;2.75;65.70
73501;BME280;61721;42.206;25.320;2024-01-27T07:17:31;99898.81;;;2.75;66.28
73501;BME280;61721;42.206;25.320;2024-01-27T07:20:00;99898.78;;;2.67;66.21
73501;BME280;61721;42.206;25.320;2024-01-27T07:22:28;99898.94;;;2.65;66.42
73501;BME280;61721;42.206;25.320;2024-01-27T07:24:55;99894.31;;;2.49;67.08
73501;BME280;61721;42.206;25.320;2024-01-27T07:27:22;99898.50;;;2.52;66.67
73501;BME280;61721;42.206;25.320;2024-01-27T07:29:51;99895.59;;;2.37;67.53
73501;BME280;61721;42.206;25.320;2024-01-27T07:32:18;99903.00;;;2.43;67.24
73501;BME280;61721;42.206;25.320;2024-01-27T07:34:47;99904.41;;;2.55;67.11
73501;BME280;61721;42.206;25.320;2024-01-27T07:37:16;99901.69;;;2.47;67.21
73501;BME280;61721;42.206;25.320;2024-01-27T07:39:43;99899.59;;;2.59;66.76
73501;BME280;61721;42.206;25.320;2024-01-27T07:42:18;99894.31;;;2.49;66.38
73501;BME280;61721;42.206;25.320;2024-01-27T07:44:45;99902.72;;;2.54;66.54
73501;BME280;61721;42.206;25.320;2024-01-27T07:47:13;99909.25;;;2.78;65.99
73501;BME280;61721;42.206;25.320;2024-01-27T07:49:40;99913.78;;;2.51;66.57
73501;BME280;61721;42.206;25.320;2024-01-27T07:52:08;99908.53;;;2.68;66.49
73501;BME280;61721;42.206;25.320;2024-01-27T07:54:36;99910.53;;;2.66;66.83
73501;BME280;61721;42.206;25.320;2024-01-27T07:57:05;99895.75;;;2.70;67.10
73501;BME280;61721;42.206;25.320;2024-01-27T07:59:33;99886.72;;;2.79;67.00
73501;BME280;61721;42.206;25.320;2024-01-27T08:02:00;99876.13;;;2.43;67.97
73501;BME280;61721;42.206;25.320;2024-01-27T08:04:28;99868.31;;;2.50;68.26
73501;BME280;61721;42.206;25.320;2024-01-27T08:06:55;99875.84;;;2.46;68.57
73501;BME280;61721;42.206;25.320;2024-01-27T08:09:23;99875.53;;;2.49;68.83
73501;BME280;61721;42.206;25.320;2024-01-27T08:11:52;99872.34;;;2.88;67.83
73501;BME280;61721;42.206;25.320;2024-01-27T08:14:19;99856.84;;;2.82;68.15
73501;BME280;61721;42.206;25.320;2024-01-27T08:16:48;99854.94;;;3.08;67.20
73501;BME280;61721;42.206;25.320;2024-01-27T08:19:15;99856.38;;;2.78;68.49
73501;BME280;61721;42.206;25.320;2024-01-27T08:21:46;99846.06;;;3.16;67.34
73501;BME280;61721;42.206;25.320;2024-01-27T08:24:14;99848.97;;;2.80;68.06
73501;BME280;61721;42.206;25.320;2024-01-27T08:26:41;99835.47;;;3.14;67.71
73501;BME280;61721;42.206;25.320;2024-01-27T08:29:10;99836.50;;;3.21;67.57
73501;BME280;61721;42.206;25.320;2024-01-27T08:31:37;99831.50;;;3.34;67.12
73501;BME280;61721;42.206;25.320;2024-01-27T08:34:05;99818.03;;;3.43;66.83
73501;BME280;61721;42.206;25.320;2024-01-27T08:36:33;99815.03;;;3.46;66.54
73501;BME280;61721;42.206;25.320;2024-01-27T08:39:01;99810.31;;;3.48;66.81
73501;BME280;61721;42.206;25.320;2024-01-27T08:41:29;99820.38;;;3.94;65.63
73501;BME280;61721;42.206;25.320;2024-01-27T08:43:56;99815.38;;;3.91;65.50
73501;BME280;61721;42.206;25.320;2024-01-27T08:46:25;99815.84;;;4.11;65.32
73501;BME280;61721;42.206;25.320;2024-01-27T08:48:52;99823.75;;;4.13;65.35
73501;BME280;61721;42.206;25.320;2024-01-27T08:51:20;99808.75;;;4.18;65.28
73501;BME280;61721;42.206;25.320;2024-01-27T08:53:47;99822.97;;;4.43;65.33
73501;BME280;61721;42.206;25.320;2024-01-27T08:56:15;99821.59;;;4.55;65.20
73501;BME280;61721;42.206;25.320;2024-01-27T08:58:44;99835.47;;;4.83;64.48
73501;BME280;61721;42.206;25.320;2024-01-27T09:01:21;99835.66;;;5.12;64.07
73501;BME280;61721;42.206;25.320;2024-01-27T09:03:52;99843.53;;;5.22;64.00
73501;BME280;61721;42.206;25.320;2024-01-27T09:06:19;99843.91;;;5.19;64.32
73501;BME280;61721;42.206;25.320;2024-01-27T09:08:47;99852.25;;;5.32;64.20
73501;BME280;61721;42.206;25.320;2024-01-27T09:11:14;99850.63;;;5.23;64.43
73501;BME280;61721;42.206;25.320;2024-01-27T09:13:42;99847.31;;;5.67;64.02
73501;BME280;61721;42.206;25.320;2024-01-27T09:16:12;99855.03;;;5.70;63.25
73501;BME280;61721;42.206;25.320;2024-01-27T09:18:40;99855.41;;;5.67;64.01
73501;BME280;61721;42.206;25.320;2024-01-27T09:21:09;99860.66;;;5.60;64.13
73501;BME280;61721;42.206;25.320;2024-01-27T09:23:37;99868.22;;;5.65;64.19
73501;BME280;61721;42.206;25.320;2024-01-27T09:26:05;99858.97;;;5.59;64.28
73501;BME280;61721;42.206;25.320;2024-01-27T09:28:32;99852.19;;;5.94;63.52
73501;BME280;61721;42.206;25.320;2024-01-27T09:31:00;99857.16;;;6.20;62.72
73501;BME280;61721;42.206;25.320;2024-01-27T09:33:27;99855.47;;;6.04;62.57
73501;BME280;61721;42.206;25.320;2024-01-27T09:35:55;99854.88;;;6.31;62.58
73501;BME280;61721;42.206;25.320;2024-01-27T09:38:24;99857.84;;;6.22;62.22
73501;BME280;61721;42.206;25.320;2024-01-27T09:40:52;99844.09;;;6.09;62.44
73501;BME280;61721;42.206;25.320;2024-01-27T09:43:19;99842.69;;;5.98;62.83
73501;BME280;61721;42.206;25.320;2024-01-27T09:45:48;99838.00;;;6.29;62.02
73501;BME280;61721;42.206;25.320;2024-01-27T09:48:16;99835.28;;;6.29;62.22
73501;BME280;61721;42.206;25.320;2024-01-27T09:50:45;99832.13;;;6.41;62.40
73501;BME280;61721;42.206;25.320;2024-01-27T09:53:14;99833.19;;;6.02;62.99
73501;BME280;61721;42.206;25.320;2024-01-27T09:55:45;99828.25;;;6.06;63.63
73501;BME280;61721;42.206;25.320;2024-01-27T09:58:12;99838.13;;;5.99;64.03
73501;BME280;61721;42.206;25.320;2024-01-27T10:00:41;99827.22;;;5.92;64.02
73501;BME280;61721;42.206;25.320;2024-01-27T10:03:09;99812.22;;;5.67;65.10
73501;BME280;61721;42.206;25.320;2024-01-27T10:05:36;99816.88;;;5.73;65.51
73501;BME280;61721;42.206;25.320;2024-01-27T10:08:06;99803.81;;;5.62;65.41
73501;BME280;61721;42.206;25.320;2024-01-27T10:10:34;99796.38;;;5.64;66.15
73501;BME280;61721;42.206;25.320;2024-01-27T10:13:04;99783.19;;;5.23;66.96
73501;BME280;61721;42.206;25.320;2024-01-27T10:15:31;99795.44;;;5.56;66.92
73501;BME280;61721;42.206;25.320;2024-01-27T10:18:08;99795.03;;;6.05;65.02
73501;BME280;61721;42.206;25.320;2024-01-27T10:20:39;99783.84;;;6.08;64.58
73501;BME280;61721;42.206;25.320;2024-01-27T10:23:10;99792.31;;;6.34;64.14
73501;BME280;61721;42.206;25.320;2024-01-27T10:25:38;99774.25;;;6.64;63.45
73501;BME280;61721;42.206;25.320;2024-01-27T10:28:07;99770.72;;;6.49;63.45
73501;BME280;61721;42.206;25.320;2024-01-27T10:30:35;99760.78;;;7.22;62.24
73501;BME280;61721;42.206;25.320;2024-01-27T10:33:03;99758.25;;;8.81;57.19
73501;BME280;61721;42.206;25.320;2024-01-27T10:35:31;99755.50;;;9.48;55.04
73501;BME280;61721;42.206;25.320;2024-01-27T10:37:58;99748.19;;;9.62;54.30
73501;BME280;61721;42.206;25.320;2024-01-27T10:40:26;99747.97;;;9.44;54.49
73501;BME280;61721;42.206;25.320;2024-01-27T10:43:00;99748.50;;;9.06;54.50
73501;BME280;61721;42.206;25.320;2024-01-27T10:45:36;99746.63;;;9.07;54.63
73501;BME280;61721;42.206;25.320;2024-01-27T10:48:05;99752.91;;;9.07;55.05
73501;BME280;61721;42.206;25.320;2024-01-27T10:50:40;99755.41;;;9.02;54.88
73501;BME280;61721;42.206;25.320;2024-01-27T10:53:09;99760.38;;;8.99;55.00
73501;BME280;61721;42.206;25.320;2024-01-27T10:55:42;99755.81;;;8.99;54.49
73501;BME280;61721;42.206;25.320;2024-01-27T10:58:12;99747.81;;;8.84;53.81
73501;BME280;61721;42.206;25.320;2024-01-27T11:00:41;99745.13;;;8.91;53.88
73501;BME280;61721;42.206;25.320;2024-01-27T11:03:11;99738.25;;;8.95;53.38
73501;BME280;61721;42.206;25.320;2024-01-27T11:05:39;99740.75;;;8.97;52.32
73501;BME280;61721;42.206;25.320;2024-01-27T11:08:08;99747.25;;;9.02;52.38
73501;BME280;61721;42.206;25.320;2024-01-27T11:10:36;99754.19;;;9.11;52.23
73501;BME280;61721;42.206;25.320;2024-01-27T11:13:04;99745.59;;;9.14;51.92
73501;BME280;61721;42.206;25.320;2024-01-27T11:15:33;99739.78;;;9.24;51.89
73501;BME280;61721;42.206;25.320;2024-01-27T11:18:02;99744.59;;;9.28;51.58
73501;BME280;61721;42.206;25.320;2024-01-27T11:20:31;99747.31;;;9.28;51.56
73501;BME280;61721;42.206;25.320;2024-01-27T11:23:09;99752.13;;;9.26;51.36
73501;BME280;61721;42.206;25.320;2024-01-27T11:25:36;99759.69;;;10.30;49.36
73501;BME280;61721;42.206;25.320;2024-01-27T11:28:11;99752.38;;;9.58;50.33
73501;BME280;61721;42.206;25.320;2024-01-27T11:30:41;99757.59;;;9.40;51.36
73501;BME280;61721;42.206;25.320;2024-01-27T11:33:13;99749.63;;;9.32;51.65
73501;BME280;61721;42.206;25.320;2024-01-27T11:35:40;99762.31;;;9.11;51.56
73501;BME280;61721;42.206;25.320;2024-01-27T11:38:08;99750.81;;;9.03;51.27
73501;BME280;61721;42.206;25.320;2024-01-27T11:40:45;99752.50;;;9.10;52.04
73501;BME280;61721;42.206;25.320;2024-01-27T11:46:04;99738.69;;;9.05;51.76
73501;BME280;61721;42.206;25.320;2024-01-27T11:48:33;99745.00;;;9.25;51.72
73501;BME280;61721;42.206;25.320;2024-01-27T11:51:05;99748.56;;;9.19;51.43
73501;BME280;61721;42.206;25.320;2024-01-27T11:53:33;99747.09;;;9.23;51.34
73501;BME280;61721;42.206;25.320;2024-01-27T11:56:01;99750.06;;;9.42;51.74
73501;BME280;61721;42.206;25.320;2024-01-27T11:58:29;99765.94;;;9.38;51.71
73501;BME280;61721;42.206;25.320;2024-01-27T12:00:57;99755.47;;;9.28;51.76
73501;BME280;61721;42.206;25.320;2024-01-27T12:03:25;99763.81;;;9.34;51.63
73501;BME280;61721;42.206;25.320;2024-01-27T12:05:53;99773.69;;;9.48;52.02
73501;BME280;61721;42.206;25.320;2024-01-27T12:08:21;99792.25;;;9.44;51.68
73501;BME280;61721;42.206;25.320;2024-01-27T12:10:49;99776.81;;;9.71;51.22
73501;BME280;61721;42.206;25.320;2024-01-27T12:13:16;99772.22;;;9.65;51.08
73501;BME280;61721;42.206;25.320;2024-01-27T12:15:44;99776.44;;;9.61;51.41
73501;BME280;61721;42.206;25.320;2024-01-27T12:18:11;99781.44;;;9.51;51.25
73501;BME280;61721;42.206;25.320;2024-01-27T12:20:39;99789.47;;;9.24;52.11
73501;BME280;61721;42.206;25.320;2024-01-27T12:23:08;99775.91;;;9.24;51.94
73501;BME280;61721;42.206;25.320;2024-01-27T12:25:36;99785.53;;;9.20;51.57
73501;BME280;61721;42.206;25.320;2024-01-27T12:28:05;99788.44;;;9.12;51.76
73501;BME280;61721;42.206;25.320;2024-01-27T12:30:34;99803.03;;;9.11;52.02
73501;BME280;61721;42.206;25.320;2024-01-27T12:33:01;99811.34;;;9.03;52.08
73501;BME280;61721;42.206;25.320;2024-01-27T12:35:36;99817.56;;;8.90;52.83
73501;BME280;61721;42.206;25.320;2024-01-27T12:38:05;99818.56;;;8.83;53.29
73501;BME280;61721;42.206;25.320;2024-01-27T12:40:34;99831.75;;;8.92;53.57
73501;BME280;61721;42.206;25.320;2024-01-27T12:43:01;99830.50;;;8.95;53.48
73501;BME280;61721;42.206;25.320;2024-01-27T12:45:29;99835.47;;;8.85;53.60
73501;BME280;61721;42.206;25.320;2024-01-27T12:47:56;99837.94;;;8.80;53.63
73501;BME280;61721;42.206;25.320;2024-01-27T12:50:24;99834.41;;;8.79;54.24
73501;BME280;61721;42.206;25.320;2024-01-27T12:52:52;99835.47;;;8.85;54.33
73501;BME280;61721;42.206;25.320;2024-01-27T12:55:20;99843.03;;;8.96;54.09
73501;BME280;61721;42.206;25.320;2024-01-27T12:57:57;99836.75;;;8.96;54.10
73501;BME280;61721;42.206;25.320;2024-01-27T13:00:25;99846.38;;;8.98;52.99
73501;BME280;61721;42.206;25.320;2024-01-27T13:02:53;99850.91;;;8.84;53.58
73501;BME280;61721;42.206;25.320;2024-01-27T13:05:20;99857.59;;;8.82;53.81
73501;BME280;61721;42.206;25.320;2024-01-27T13:07:47;99853.75;;;8.70;54.54